Time;durP1;ratioP1;P1;durP2;ratioP2;P2;SDS_P1;SDS_P2;PMS_P1;PMS_P2;Temp;Humidity;BMP_temperature;BMP_pressure;BME280_temperature;BME280_humidity;BME280_pressure;Samples;Min_cycle;Max_cycle;Signal;HPM_P1;HPM_P2
2021/05/14 00:01:05;;;;;;;9.75;8.70;;;8.30;95.40;;;;;;5077138;28;20048;-70
2021/05/14 00:03:31;;;;;;;7.95;7.25;;;8.30;95.40;;;;;;5082214;28;20063;-69
2021/05/14 00:05:57;;;;;;;9.13;8.25;;;8.40;95.30;;;;;;5079648;28;20384;-69
2021/05/14 00:08:23;;;;;;;8.77;8.07;;;8.40;95.40;;;;;;5080116;28;20047;-69
2021/05/14 00:10:50;;;;;;;9.00;8.20;;;8.40;95.40;;;;;;5074816;28;20044;-69
2021/05/14 00:13:18;;;;;;;10.75;8.82;;;8.40;95.40;;;;;;5082436;28;20087;-69
2021/05/14 00:15:44;;;;;;;10.32;9.15;;;8.40;95.60;;;;;;5074708;28;20556;-70
2021/05/14 00:18:13;;;;;;;9.45;8.55;;;8.30;95.60;;;;;;5081565;28;20036;-69
2021/05/14 00:20:41;;;;;;;9.38;8.13;;;8.30;95.60;;;;;;5071343;28;20043;-69
2021/05/14 00:23:08;;;;;;;9.32;8.43;;;8.30;96.00;;;;;;5076767;28;20474;-69
2021/05/14 00:25:34;;;;;;;10.07;8.88;;;8.30;95.70;;;;;;5077647;28;20570;-69
2021/05/14 00:27:59;;;;;;;12.65;9.25;;;8.30;95.70;;;;;;5074326;28;20135;-69
2021/05/14 00:30:25;;;;;;;10.02;8.70;;;8.30;95.80;;;;;;5076388;28;20040;-69
2021/05/14 00:32:51;;;;;;;13.63;9.25;;;8.30;95.60;;;;;;5085064;28;20044;-69
2021/05/14 00:35:17;;;;;;;10.18;9.23;;;8.30;95.70;;;;;;5076744;28;20036;-69
2021/05/14 00:37:43;;;;;;;10.15;9.32;;;8.30;95.70;;;;;;5082006;28;20320;-70
2021/05/14 00:40:09;;;;;;;10.27;9.38;;;8.40;95.80;;;;;;5080909;28;20065;-70
2021/05/14 00:42:35;;;;;;;10.15;8.90;;;8.40;95.70;;;;;;5076984;28;20036;-70
2021/05/14 00:45:03;;;;;;;11.30;9.25;;;8.30;95.80;;;;;;5081943;28;20036;-70
2021/05/14 00:47:28;;;;;;;11.02;8.57;;;8.30;95.90;;;;;;5076031;28;20409;-70
2021/05/14 00:49:54;;;;;;;9.30;8.45;;;8.40;95.90;;;;;;5080767;28;20037;-69
2021/05/14 00:52:21;;;;;;;9.77;8.85;;;8.40;95.90;;;;;;5074703;28;20484;-69
2021/05/14 00:54:48;;;;;;;10.10;9.13;;;8.30;95.90;;;;;;5075421;28;20636;-69
2021/05/14 00:57:17;;;;;;;9.55;8.65;;;8.30;96.00;;;;;;5075134;28;20496;-69
2021/05/14 00:59:45;;;;;;;8.85;7.95;;;8.20;95.90;;;;;;5094628;28;20056;-69
2021/05/14 01:02:11;;;;;;;8.98;8.13;;;8.30;95.80;;;;;;5073654;28;20459;-69
2021/05/14 01:04:38;;;;;;;8.93;7.60;;;8.30;95.90;;;;;;5101752;28;20460;-69
2021/05/14 01:07:05;;;;;;;8.77;7.85;;;8.20;95.80;;;;;;5098192;28;20513;-69
2021/05/14 01:09:32;;;;;;;8.85;7.97;;;8.20;95.70;;;;;;5093607;28;20059;-69
2021/05/14 01:11:58;;;;;;;8.57;7.55;;;8.20;95.80;;;;;;5095732;28;20146;-69
2021/05/14 01:14:24;;;;;;;8.52;7.72;;;8.20;96.00;;;;;;5100018;28;20044;-69
2021/05/14 01:16:50;;;;;;;8.85;7.40;;;8.20;96.10;;;;;;5087966;28;20066;-69
2021/05/14 01:19:16;;;;;;;9.90;8.10;;;8.20;95.90;;;;;;5095654;28;20036;-69
2021/05/14 01:21:42;;;;;;;8.98;8.18;;;8.30;96.00;;;;;;5097457;28;20104;-69
2021/05/14 01:24:08;;;;;;;7.82;7.03;;;8.20;96.20;;;;;;5097305;28;20028;-69
2021/05/14 01:26:35;;;;;;;8.65;7.78;;;8.30;96.20;;;;;;5081317;28;20069;-69
2021/05/14 01:29:03;;;;;;;10.55;8.43;;;8.20;96.40;;;;;;5095711;28;20081;-69
2021/05/14 01:31:29;;;;;;;10.80;8.15;;;8.20;96.30;;;;;;5101105;28;20435;-69
2021/05/14 01:33:55;;;;;;;9.70;8.68;;;8.20;96.20;;;;;;5098041;28;20042;-69
2021/05/14 01:36:21;;;;;;;12.07;8.88;;;8.20;96.30;;;;;;5102236;28;20556;-69
2021/05/14 01:38:47;;;;;;;9.85;8.88;;;8.20;96.30;;;;;;5096910;28;20040;-69
2021/05/14 01:41:13;;;;;;;10.60;9.20;;;8.20;96.20;;;;;;5097475;28;20039;-69
2021/05/14 01:43:39;;;;;;;10.45;9.55;;;8.20;96.00;;;;;;5078813;28;20553;-69
2021/05/14 01:46:05;;;;;;;10.80;9.70;;;8.30;96.10;;;;;;5102918;28;20118;-69
2021/05/14 01:48:32;;;;;;;11.55;10.25;;;8.30;96.20;;;;;;5096201;28;20040;-69
2021/05/14 01:51:08;;;;;;;10.88;9.88;;;8.30;96.20;;;;;;5100846;28;20034;-69
2021/05/14 01:53:34;;;;;;;10.82;9.82;;;8.30;96.10;;;;;;5092014;28;20039;-69
2021/05/14 01:56:00;;;;;;;10.52;9.35;;;8.30;96.00;;;;;;5080783;28;20047;-69
2021/05/14 01:58:25;;;;;;;12.45;11.23;;;8.40;96.10;;;;;;5103222;28;20052;-69
2021/05/14 02:00:52;;;;;;;12.25;11.15;;;8.40;96.20;;;;;;5098152;28;20048;-69
2021/05/14 02:03:17;;;;;;;13.90;11.60;;;8.30;96.10;;;;;;5104184;28;20040;-68
2021/05/14 02:05:43;;;;;;;13.13;11.90;;;8.40;96.20;;;;;;5098503;28;20115;-68
2021/05/14 02:08:09;;;;;;;13.27;11.85;;;8.30;96.10;;;;;;5105125;28;20035;-68
2021/05/14 02:10:35;;;;;;;11.95;10.80;;;8.40;96.20;;;;;;5098589;28;20077;-68
2021/05/14 02:13:01;;;;;;;12.10;11.00;;;8.40;96.10;;;;;;5106075;28;20036;-68
2021/05/14 02:15:26;;;;;;;12.23;11.02;;;8.50;96.10;;;;;;5097513;28;20036;-68
2021/05/14 02:17:52;;;;;;;13.55;12.25;;;8.50;96.10;;;;;;5105023;28;20036;-68
2021/05/14 02:20:18;;;;;;;14.32;12.93;;;8.50;96.00;;;;;;5084038;28;20527;-68
2021/05/14 02:22:45;;;;;;;14.20;12.85;;;8.50;96.00;;;;;;5103727;28;20051;-69
2021/05/14 02:25:11;;;;;;;13.70;12.30;;;8.50;96.00;;;;;;5099267;28;20084;-68
2021/05/14 02:27:37;;;;;;;13.63;12.38;;;8.50;95.90;;;;;;5104227;28;20035;-68
2021/05/14 02:30:05;;;;;;;16.20;13.80;;;8.50;95.90;;;;;;5101584;28;20034;-68
2021/05/14 02:32:31;;;;;;;14.60;13.20;;;8.50;95.90;;;;;;5104556;28;20586;-68
2021/05/14 02:34:57;;;;;;;15.10;13.65;;;8.40;95.90;;;;;;5104501;28;20043;-68
2021/05/14 02:37:23;;;;;;;14.48;13.02;;;8.50;95.90;;;;;;5100833;28;20080;-68
2021/05/14 02:39:49;;;;;;;15.80;14.30;;;8.50;95.90;;;;;;5089003;28;20066;-68
2021/05/14 02:42:15;;;;;;;14.57;12.70;;;8.40;96.00;;;;;;5080394;28;20150;-68
2021/05/14 02:44:41;;;;;;;13.70;12.40;;;8.40;96.00;;;;;;5106496;28;20085;-68
2021/05/14 02:47:08;;;;;;;14.43;12.93;;;8.30;96.00;;;;;;5096285;28;20044;-68
2021/05/14 02:49:35;;;;;;;14.23;12.88;;;8.30;96.00;;;;;;5105832;28;20062;-68
2021/05/14 02:52:01;;;;;;;14.88;13.48;;;8.30;96.00;;;;;;5096238;28;20036;-68
2021/05/14 02:54:27;;;;;;;14.98;13.57;;;8.30;96.00;;;;;;5103717;28;20039;-68
2021/05/14 02:56:52;;;;;;;14.82;13.38;;;8.30;95.80;;;;;;5097644;28;20036;-68
2021/05/14 02:59:20;;;;;;;14.95;13.40;;;8.30;95.80;;;;;;5084053;28;20120;-68
2021/05/14 03:01:47;;;;;;;14.88;13.38;;;8.20;95.80;;;;;;5078012;28;20059;-69
2021/05/14 03:04:13;;;;;;;14.20;12.77;;;8.30;95.90;;;;;;5080143;28;20043;-68
2021/05/14 03:06:39;;;;;;;15.25;13.85;;;8.30;95.90;;;;;;5081075;28;20480;-69
2021/05/14 03:09:05;;;;;;;15.75;14.13;;;8.30;95.90;;;;;;5083090;28;20077;-69
2021/05/14 03:11:31;;;;;;;15.52;13.98;;;8.30;96.00;;;;;;5081064;28;20040;-68
2021/05/14 03:13:57;;;;;;;15.73;14.13;;;8.30;96.00;;;;;;5081012;28;20139;-68
2021/05/14 03:16:23;;;;;;;16.08;14.35;;;8.20;96.00;;;;;;5082340;28;20063;-68
2021/05/14 03:18:49;;;;;;;16.50;14.80;;;8.30;96.00;;;;;;5077427;28;20047;-69
2021/05/14 03:21:15;;;;;;;16.38;14.70;;;8.30;96.10;;;;;;5079750;28;20115;-68
2021/05/14 03:23:40;;;;;;;16.98;15.27;;;8.30;96.00;;;;;;5077567;28;20042;-68
2021/05/14 03:26:06;;;;;;;17.35;15.50;;;8.30;96.10;;;;;;5080303;28;20033;-68
2021/05/14 03:28:32;;;;;;;17.95;16.17;;;8.30;96.10;;;;;;5076274;28;20063;-68
2021/05/14 03:30:58;;;;;;;18.65;16.80;;;8.30;96.10;;;;;;5079696;28;20031;-68
2021/05/14 03:33:24;;;;;;;17.55;15.85;;;8.30;96.00;;;;;;5076481;28;20101;-68
2021/05/14 03:35:51;;;;;;;18.50;16.63;;;8.30;96.20;;;;;;5084993;28;20067;-68
2021/05/14 03:38:21;;;;;;;18.60;16.73;;;8.30;96.20;;;;;;5076751;28;20040;-68
2021/05/14 03:40:48;;;;;;;18.02;16.10;;;8.30;96.30;;;;;;5079257;28;20043;-68
2021/05/14 03:43:15;;;;;;;18.40;16.65;;;8.30;96.30;;;;;;5075912;28;20101;-68
2021/05/14 03:45:41;;;;;;;18.33;16.55;;;8.30;96.30;;;;;;5081150;28;20047;-68
2021/05/14 03:48:19;;;;;;;17.88;16.13;;;8.30;96.20;;;;;;5075232;28;20036;-69
2021/05/14 03:50:50;;;;;;;17.17;15.55;;;8.40;96.20;;;;;;5083816;28;20032;-68
2021/05/14 03:53:17;;;;;;;16.60;15.07;;;8.40;96.10;;;;;;5078766;28;20040;-68
2021/05/14 03:55:43;;;;;;;15.52;13.93;;;8.40;96.20;;;;;;5084268;28;20040;-68
2021/05/14 03:58:09;;;;;;;15.95;14.38;;;8.50;96.20;;;;;;5078476;28;20044;-68
2021/05/14 04:00:35;;;;;;;17.25;15.45;;;8.50;96.20;;;;;;5097349;28;20520;-68
2021/05/14 04:03:01;;;;;;;17.17;15.48;;;8.40;96.10;;;;;;5102885;28;20130;-68
2021/05/14 04:05:27;;;;;;;16.02;14.43;;;8.40;96.00;;;;;;5095155;28;20652;-68
2021/05/14 04:07:54;;;;;;;15.95;14.38;;;8.50;96.00;;;;;;5100679;28;20040;-68
2021/05/14 04:15:37;;;;;;;14.73;13.23;;;8.50;96.00;;;;;;5095548;28;20111;-68
2021/05/14 04:18:03;;;;;;;13.07;11.82;;;8.50;96.10;;;;;;5102295;28;20115;-68
2021/05/14 04:20:30;;;;;;;14.15;12.73;;;8.50;96.10;;;;;;5096171;28;20119;-69
2021/05/14 04:22:56;;;;;;;13.68;12.30;;;8.60;96.10;;;;;;5103012;28;20031;-69
2021/05/14 04:25:22;;;;;;;11.55;10.32;;;8.60;96.00;;;;;;5099503;28;20463;-69
2021/05/14 04:27:48;;;;;;;9.60;8.60;;;8.60;96.10;;;;;;5101967;28;20036;-68
2021/05/14 04:30:17;;;;;;;8.80;7.20;;;8.60;96.00;;;;;;5096314;28;20546;-69
2021/05/14 04:32:42;;;;;;;8.55;7.65;;;8.60;96.00;;;;;;5105597;28;20032;-68
2021/05/14 04:35:09;;;;;;;7.82;7.03;;;8.60;95.90;;;;;;5099043;28;20028;-68
2021/05/14 04:37:35;;;;;;;8.63;7.32;;;8.70;95.90;;;;;;5102322;28;20119;-68
2021/05/14 04:40:01;;;;;;;8.50;7.18;;;8.70;95.90;;;;;;5096566;28;20147;-68
2021/05/14 04:42:26;;;;;;;8.55;7.60;;;8.70;95.90;;;;;;5101965;28;20115;-68
2021/05/14 04:44:52;;;;;;;10.38;7.70;;;8.70;96.00;;;;;;5099112;28;20381;-68
2021/05/14 04:47:18;;;;;;;8.52;7.63;;;8.70;96.00;;;;;;5096251;28;20040;-69
2021/05/14 04:49:44;;;;;;;10.23;7.63;;;8.80;95.90;;;;;;5100740;28;20035;-68
2021/05/14 04:52:21;;;;;;;9.20;7.97;;;8.80;95.90;;;;;;5096325;28;20411;-68
2021/05/14 04:54:47;;;;;;;9.57;7.47;;;8.80;95.90;;;;;;5099682;28;20464;-68
2021/05/14 04:57:13;;;;;;;9.05;7.45;;;8.90;96.00;;;;;;5093513;28;20126;-69
2021/05/14 04:59:39;;;;;;;8.32;7.53;;;8.90;95.90;;;;;;5090839;28;20071;-68
2021/05/14 05:02:07;;;;;;;9.73;7.68;;;9.00;95.80;;;;;;5077026;28;20050;-69
2021/05/14 05:04:38;;;;;;;10.15;7.00;;;9.10;96.10;;;;;;5081375;28;20047;-68
2021/05/14 05:07:04;;;;;;;9.05;7.57;;;9.10;95.60;;;;;;5076106;28;20036;-68
2021/05/14 05:09:35;;;;;;;12.77;8.02;;;9.10;95.50;;;;;;5083630;28;20139;-68
2021/05/14 05:12:02;;;;;;;11.18;7.10;;;9.20;95.40;;;;;;5074022;28;20455;-68
2021/05/14 05:14:28;;;;;;;11.52;8.30;;;9.20;95.30;;;;;;5081532;28;20036;-68
2021/05/14 05:16:54;;;;;;;10.68;8.00;;;9.20;95.20;;;;;;5077312;28;20093;-68
2021/05/14 05:19:20;;;;;;;12.63;7.07;;;9.20;95.20;;;;;;5082886;28;20075;-68
2021/05/14 05:21:47;;;;;;;9.18;6.40;;;9.20;95.20;;;;;;5076283;28;20499;-68
2021/05/14 05:24:13;;;;;;;7.40;6.47;;;9.20;94.80;;;;;;5086830;28;20391;-68
2021/05/14 05:26:40;;;;;;;9.35;6.68;;;9.20;94.50;;;;;;5082066;28;20396;-68
2021/05/14 05:29:05;;;;;;;11.40;7.05;;;9.20;94.50;;;;;;5085559;28;20042;-68
2021/05/14 05:31:32;;;;;;;10.02;6.63;;;9.20;94.40;;;;;;5087482;28;20033;-68
2021/05/14 05:34:00;;;;;;;9.38;6.18;;;9.20;94.30;;;;;;5083533;28;20561;-68
2021/05/14 05:36:25;;;;;;;10.07;6.68;;;9.20;94.30;;;;;;5089944;28;20055;-68
2021/05/14 05:38:51;;;;;;;8.88;6.28;;;9.20;94.40;;;;;;5082514;28;20071;-68
2021/05/14 05:41:18;;;;;;;8.15;6.25;;;9.20;94.40;;;;;;5090237;28;20454;-68
2021/05/14 05:43:44;;;;;;;9.77;6.88;;;9.20;94.30;;;;;;5080862;28;20043;-68
2021/05/14 05:46:11;;;;;;;8.32;6.07;;;9.20;94.60;;;;;;5087267;28;20081;-68
2021/05/14 05:48:36;;;;;;;9.52;6.60;;;9.30;94.50;;;;;;5079913;28;20119;-68
2021/05/14 05:51:02;;;;;;;12.85;8.82;;;9.40;94.40;;;;;;5082886;28;20040;-68
2021/05/14 05:53:28;;;;;;;11.75;6.32;;;9.40;94.20;;;;;;5084947;28;20402;-68
2021/05/14 05:55:54;;;;;;;7.85;6.22;;;9.50;94.10;;;;;;5090416;28;20151;-68
2021/05/14 05:58:20;;;;;;;9.75;6.63;;;9.60;94.00;;;;;;5083197;28;20059;-68
2021/05/14 06:00:47;;;;;;;11.57;6.43;;;9.60;93.90;;;;;;5086541;28;20044;-68
2021/05/14 06:03:14;;;;;;;12.30;6.25;;;9.60;93.90;;;;;;5081509;28;20072;-68
2021/05/14 06:05:41;;;;;;;12.18;6.55;;;9.70;93.60;;;;;;5086680;28;20036;-68
2021/05/14 06:08:08;;;;;;;10.80;5.90;;;9.70;93.60;;;;;;5087842;28;20449;-68
2021/05/14 06:10:42;;;;;;;11.25;6.68;;;9.70;93.70;;;;;;5085858;28;20047;-68
2021/05/14 06:13:08;;;;;;;8.90;6.18;;;9.80;93.40;;;;;;5088398;28;20502;-68
2021/05/14 06:15:34;;;;;;;8.93;6.70;;;9.80;93.30;;;;;;5080152;28;20041;-68
2021/05/14 06:18:00;;;;;;;10.95;7.20;;;9.80;93.30;;;;;;5085500;28;20040;-69
2021/05/14 06:20:28;;;;;;;9.95;6.95;;;9.90;93.00;;;;;;5081239;28;20033;-68
2021/05/14 06:22:54;;;;;;;12.70;7.72;;;9.90;92.90;;;;;;5091045;28;20079;-68
2021/05/14 06:25:20;;;;;;;12.70;6.97;;;10.00;92.80;;;;;;5081667;28;20458;-68
2021/05/14 06:27:46;;;;;;;8.73;6.78;;;10.00;93.00;;;;;;5086299;28;20127;-68
2021/05/14 06:30:13;;;;;;;11.63;7.03;;;10.00;92.80;;;;;;5080532;28;20036;-69
2021/05/14 06:32:39;;;;;;;10.43;7.03;;;10.00;92.90;;;;;;5083295;28;20040;-68
2021/05/14 06:35:06;;;;;;;12.98;7.25;;;10.10;92.80;;;;;;5078014;28;20036;-69
2021/05/14 06:37:36;;;;;;;12.20;6.75;;;10.10;92.50;;;;;;5082912;28;20032;-69
2021/05/14 06:40:09;;;;;;;13.40;7.60;;;10.00;92.60;;;;;;5084236;28;20121;-69
2021/05/14 06:42:35;;;;;;;8.07;6.35;;;10.00;92.40;;;;;;5086627;28;20092;-69
2021/05/14 06:45:01;;;;;;;11.07;6.30;;;10.10;92.60;;;;;;5080257;28;20228;-69
2021/05/14 06:47:27;;;;;;;9.25;6.03;;;10.10;92.20;;;;;;5084548;28;20047;-69
2021/05/14 06:49:53;;;;;;;9.05;6.25;;;10.10;92.20;;;;;;5079709;28;20352;-69
2021/05/14 06:52:19;;;;;;;11.57;6.20;;;10.10;92.30;;;;;;5084562;28;20464;-69
2021/05/14 06:54:44;;;;;;;12.45;6.00;;;10.10;92.00;;;;;;5089925;28;20040;-69
2021/05/14 06:57:10;;;;;;;8.25;5.72;;;10.10;91.90;;;;;;5077876;28;20326;-69
2021/05/14 06:59:36;;;;;;;11.10;5.85;;;10.10;91.90;;;;;;5091289;28;20403;-68
2021/05/14 07:02:03;;;;;;;11.95;6.45;;;10.00;91.90;;;;;;5098963;28;20176;-68
2021/05/14 07:04:31;;;;;;;10.95;6.95;;;10.00;92.20;;;;;;5109817;28;20035;-68
2021/05/14 07:06:57;;;;;;;8.95;6.60;;;10.10;92.40;;;;;;5101643;28;20467;-69
2021/05/14 07:09:23;;;;;;;11.85;6.88;;;10.10;92.40;;;;;;5106684;28;20044;-69
2021/05/14 07:11:49;;;;;;;11.02;6.50;;;10.20;92.30;;;;;;5101500;28;20044;-69
2021/05/14 07:14:15;;;;;;;9.88;5.82;;;10.20;92.30;;;;;;5106486;28;20061;-69
2021/05/14 07:16:42;;;;;;;9.48;5.82;;;10.30;92.20;;;;;;5099574;28;20035;-69
2021/05/14 07:19:08;;;;;;;9.68;5.50;;;10.30;92.20;;;;;;5105726;28;20028;-69
2021/05/14 07:21:34;;;;;;;7.70;5.05;;;10.30;91.80;;;;;;5098959;28;20093;-69
2021/05/14 07:24:00;;;;;;;7.57;5.50;;;10.20;91.80;;;;;;5104637;28;20040;-69
2021/05/14 07:26:26;;;;;;;10.55;6.25;;;10.20;92.00;;;;;;5095361;28;20096;-69
2021/05/14 07:28:52;;;;;;;9.73;5.25;;;10.20;91.90;;;;;;5103116;28;20050;-69
2021/05/14 07:31:18;;;;;;;6.93;4.53;;;10.30;92.20;;;;;;5105999;28;20032;-68
2021/05/14 07:33:45;;;;;;;9.63;4.82;;;10.30;92.10;;;;;;5098505;28;20039;-69
2021/05/14 07:36:11;;;;;;;7.68;5.07;;;10.50;92.00;;;;;;5100072;28;20447;-69
2021/05/14 07:38:37;;;;;;;6.25;4.40;;;10.60;91.90;;;;;;5097324;28;20071;-69
2021/05/14 07:41:03;;;;;;;8.18;4.35;;;10.70;91.90;;;;;;5098815;28;20032;-69
2021/05/14 07:43:29;;;;;;;9.52;4.88;;;10.60;91.20;;;;;;5099756;28;20088;-69
2021/05/14 07:45:54;;;;;;;7.97;4.18;;;10.70;91.30;;;;;;5101380;28;20065;-69
2021/05/14 07:48:20;;;;;;;9.48;4.78;;;10.80;91.40;;;;;;5097109;28;20047;-69
2021/05/14 07:50:48;;;;;;;8.05;4.40;;;10.70;91.30;;;;;;5100857;28;20064;-69
2021/05/14 07:53:20;;;;;;;7.35;4.43;;;10.80;91.10;;;;;;5097012;28;20038;-69
2021/05/14 07:55:46;;;;;;;8.02;5.38;;;10.80;91.00;;;;;;5105413;28;20032;-69
2021/05/14 07:58:11;;;;;;;9.93;5.72;;;10.80;91.10;;;;;;5100738;28;20031;-68
2021/05/14 08:00:39;;;;;;;10.25;5.38;;;10.90;91.00;;;;;;5085016;28;20052;-69
2021/05/14 08:03:04;;;;;;;9.23;5.45;;;11.00;91.10;;;;;;5075175;28;20036;-69
2021/05/14 08:05:31;;;;;;;8.75;4.93;;;11.00;90.80;;;;;;5077464;28;20040;-69
2021/05/14 08:07:59;;;;;;;11.18;5.40;;;11.00;90.60;;;;;;5077995;28;20120;-69
2021/05/14 08:10:25;;;;;;;8.43;4.72;;;10.90;91.10;;;;;;5081531;28;20400;-69
2021/05/14 08:12:51;;;;;;;8.25;4.82;;;10.90;91.10;;;;;;5081985;28;20071;-68
2021/05/14 08:15:19;;;;;;;7.43;4.55;;;10.90;90.90;;;;;;5078444;28;20040;-68
2021/05/14 08:17:51;;;;;;;9.02;4.95;;;10.90;90.70;;;;;;5084358;28;20397;-69
2021/05/14 08:20:18;;;;;;;6.97;5.05;;;11.00;90.80;;;;;;5078635;28;20093;-69
2021/05/14 08:22:44;;;;;;;8.60;4.55;;;11.00;90.60;;;;;;5084770;28;20052;-69
2021/05/14 08:25:11;;;;;;;8.27;3.67;;;11.10;90.40;;;;;;5080851;28;20465;-69
2021/05/14 08:27:38;;;;;;;7.20;4.38;;;11.20;90.20;;;;;;5081759;28;20111;-68
2021/05/14 08:30:06;;;;;;;8.27;4.28;;;11.30;89.20;;;;;;5081178;28;20047;-69
2021/05/14 08:32:40;;;;;;;7.30;3.83;;;11.30;89.00;;;;;;5080689;28;20036;-69
2021/05/14 08:35:07;;;;;;;6.72;3.83;;;11.50;89.20;;;;;;5073863;28;20139;-69
2021/05/14 08:37:33;;;;;;;8.60;4.10;;;11.70;88.80;;;;;;5086017;28;20135;-69
2021/05/14 08:39:59;;;;;;;9.27;4.53;;;12.00;88.30;;;;;;5080266;28;20035;-69
2021/05/14 08:42:25;;;;;;;9.73;4.13;;;12.30;88.10;;;;;;5085391;28;20460;-69
2021/05/14 08:45:13;;;;;;;9.15;4.63;;;12.50;86.90;;;;;;5076511;28;20052;-69
2021/05/14 08:47:42;;;;;;;7.85;4.28;;;12.40;86.40;;;;;;5080246;28;20035;-69
2021/05/14 08:50:11;;;;;;;8.85;4.68;;;12.40;87.30;;;;;;5075324;28;20036;-69
2021/05/14 08:52:39;;;;;;;9.60;4.40;;;12.30;86.10;;;;;;5080406;28;20123;-69
2021/05/14 08:55:07;;;;;;;11.52;5.38;;;12.20;86.40;;;;;;5077736;28;20039;-69
2021/05/14 08:57:33;;;;;;;8.82;3.95;;;12.10;87.30;;;;;;5080139;28;20089;-69
2021/05/14 09:00:05;;;;;;;8.50;4.40;;;12.20;86.90;;;;;;5086489;28;20133;-69
2021/05/14 09:02:41;;;;;;;8.13;4.35;;;12.30;87.70;;;;;;5102828;28;20052;-69
2021/05/14 09:05:33;;;;;;;7.15;4.50;;;12.30;87.10;;;;;;5096927;28;20394;-69
2021/05/14 09:08:01;;;;;;;9.10;4.40;;;12.30;86.60;;;;;;5099932;28;20048;-69
2021/05/14 09:10:33;;;;;;;7.85;4.57;;;12.30;86.90;;;;;;5095120;28;20548;-69
2021/05/14 09:12:59;;;;;;;8.60;4.72;;;12.30;86.00;;;;;;5103207;28;20047;-69
2021/05/14 09:15:29;;;;;;;10.05;5.30;;;12.40;87.40;;;;;;5094933;28;20062;-69
2021/05/14 09:18:02;;;;;;;9.10;4.90;;;12.30;86.40;;;;;;5085979;28;20071;-69
2021/05/14 09:20:38;;;;;;;9.07;5.30;;;12.40;86.20;;;;;;5083954;28;20032;-69
2021/05/14 09:23:15;;;;;;;12.27;5.32;;;12.30;86.40;;;;;;5103448;28;20123;-69
2021/05/14 09:25:55;;;;;;;10.30;5.90;;;12.40;85.70;;;;;;5099627;28;20042;-70
2021/05/14 09:28:35;;;;;;;11.57;5.70;;;12.30;85.60;;;;;;5100016;28;20031;-68
2021/05/14 09:31:36;;;;;;;12.02;5.90;;;12.20;85.70;;;;;;5092871;28;20048;-69
2021/05/14 09:34:02;;;;;;;10.00;5.57;;;12.30;87.00;;;;;;5071540;28;20507;-69
2021/05/14 09:36:33;;;;;;;10.55;5.53;;;12.40;86.30;;;;;;5096093;28;20032;-70
2021/05/14 09:39:04;;;;;;;10.70;5.15;;;12.60;84.60;;;;;;5103936;28;20100;-70
2021/05/14 09:41:37;;;;;;;12.13;5.47;;;12.70;84.00;;;;;;5093491;28;20107;-70
2021/05/14 09:44:08;;;;;;;7.50;5.18;;;12.70;84.00;;;;;;5099026;28;20064;-70
2021/05/14 09:46:53;;;;;;;10.85;5.85;;;12.80;82.60;;;;;;5100021;28;20028;-70
2021/05/14 09:49:23;;;;;;;10.40;6.40;;;12.80;83.10;;;;;;5086001;28;20352;-70
2021/05/14 09:52:05;;;;;;;12.77;6.40;;;12.60;83.60;;;;;;5096907;28;20040;-70
2021/05/14 09:54:38;;;;;;;11.57;5.90;;;12.60;83.30;;;;;;5102976;28;20040;-70
2021/05/14 10:00:03;;;;;;;;;;;12.80;84.80;;;;;;5105013;28;20052;-70
2021/05/14 10:02:35;;;;;;;15.98;6.43;;;12.90;82.60;;;;;;5094886;28;20396;-70
2021/05/14 10:05:06;;;;;;;13.57;6.97;;;13.00;82.70;;;;;;5085594;28;20392;-70
2021/05/14 10:07:34;;;;;;;10.32;6.65;;;13.20;82.70;;;;;;5095692;28;20043;-70
2021/05/14 10:10:08;;;;;;;13.00;7.07;;;13.40;82.90;;;;;;5102660;28;20555;-70
2021/05/14 10:12:35;;;;;;;12.10;6.22;;;13.60;82.50;;;;;;5099105;28;20038;-71
2021/05/14 10:15:03;;;;;;;10.48;5.78;;;13.60;80.40;;;;;;5102432;28;20036;-70
2021/05/14 10:17:30;;;;;;;9.48;5.80;;;13.60;81.20;;;;;;5107428;28;20089;-69
2021/05/14 10:19:59;;;;;;;11.32;6.35;;;13.70;79.90;;;;;;5100395;28;20032;-70
2021/05/14 10:22:34;;;;;;;10.90;6.28;;;13.90;79.30;;;;;;5102425;28;20043;-70
2021/05/14 10:25:00;;;;;;;13.35;6.80;;;14.00;79.30;;;;;;5099135;28;20040;-70
2021/05/14 10:27:38;;;;;;;10.82;6.68;;;14.10;78.60;;;;;;5107481;28;20383;-69
2021/05/14 10:30:05;;;;;;;13.45;6.40;;;14.10;78.80;;;;;;5098645;28;20687;-69
2021/05/14 10:32:55;;;;;;;13.02;6.38;;;14.30;78.70;;;;;;5104401;28;20043;-69
2021/05/14 10:35:26;;;;;;;10.13;6.03;;;14.50;75.70;;;;;;5100757;28;20050;-70
2021/05/14 10:37:55;;;;;;;11.80;6.50;;;14.30;76.50;;;;;;5103401;28;20040;-70
2021/05/14 10:40:32;;;;;;;13.57;6.20;;;14.20;78.30;;;;;;5099506;28;20028;-70
2021/05/14 10:43:00;;;;;;;10.15;5.43;;;14.20;77.90;;;;;;5083873;28;20083;-69
2021/05/14 10:45:39;;;;;;;12.40;5.15;;;14.30;77.80;;;;;;5101793;28;20044;-69
2021/05/14 10:48:17;;;;;;;10.23;5.38;;;14.40;76.20;;;;;;5101641;28;20057;-69
2021/05/14 10:51:00;;;;;;;10.95;6.03;;;14.60;76.00;;;;;;5096329;28;20039;-69
2021/05/14 10:53:34;;;;;;;13.43;6.13;;;14.70;76.00;;;;;;5105004;28;20040;-67
2021/05/14 10:56:11;;;;;;;11.32;6.40;;;14.80;75.10;;;;;;5101730;28;20459;-67
2021/05/14 10:59:05;;;;;;;13.82;6.43;;;15.00;75.70;;;;;;5101968;28;20067;-68
2021/05/14 11:01:31;;;;;;;10.85;5.68;;;15.30;73.00;;;;;;5099454;28;20457;-71
2021/05/14 11:04:01;;;;;;;12.45;6.15;;;15.20;73.30;;;;;;5104938;28;20483;-69
2021/05/14 11:06:41;;;;;;;14.13;6.13;;;15.30;72.20;;;;;;5094014;28;20093;-67
2021/05/14 11:09:12;;;;;;;11.35;4.30;;;15.40;71.00;;;;;;5105290;28;20035;-68
2021/05/14 11:12:08;;;;;;;10.85;4.90;;;15.50;71.20;;;;;;5098286;28;20047;-69
2021/05/14 11:14:40;;;;;;;;;;;15.50;69.60;;;;;;5106431;28;20031;-68
2021/05/14 11:17:11;;;;;;;10.52;5.05;;;15.40;68.40;;;;;;5099644;28;19920;-68
2021/05/14 11:19:57;;;;;;;9.23;4.72;;;15.50;70.90;;;;;;5103478;28;20066;-68
2021/05/14 11:22:23;;;;;;;11.35;5.78;;;15.60;69.50;;;;;;5103459;28;20039;-68
2021/05/14 11:24:59;;;;;;;10.80;5.70;;;15.60;72.30;;;;;;5105900;28;20039;-68
2021/05/14 11:27:32;;;;;;;15.00;6.10;;;15.50;70.50;;;;;;5102364;28;20035;-69
2021/05/14 11:30:09;;;;;;;9.98;4.97;;;15.40;71.40;;;;;;5102900;28;20187;-68
2021/05/14 11:32:39;;;;;;;10.57;5.75;;;15.40;70.30;;;;;;5100462;28;20498;-68
2021/05/14 11:35:06;;;;;;;10.90;5.15;;;15.20;70.80;;;;;;5105800;28;20402;-68
2021/05/14 11:37:54;;;;;;;11.07;5.15;;;15.30;73.20;;;;;;5097028;28;20401;-68
2021/05/14 11:40:26;;;;;;;7.43;4.68;;;15.40;71.60;;;;;;5101100;28;20500;-68
2021/05/14 11:42:56;;;;;;;9.75;4.88;;;15.40;73.00;;;;;;5096933;28;20123;-68
2021/05/14 11:45:38;;;;;;;12.23;5.30;;;15.40;71.00;;;;;;5103766;28;20154;-68
2021/05/14 11:48:28;;;;;;;12.35;5.80;;;15.40;71.50;;;;;;5083878;28;20047;-67
2021/05/14 11:50:58;;;;;;;11.20;5.55;;;15.40;70.20;;;;;;5099327;28;20046;-67
2021/05/14 11:53:25;;;;;;;10.45;5.57;;;15.20;70.40;;;;;;5097212;28;20062;-68
2021/05/14 11:55:54;;;;;;;11.00;5.75;;;15.10;70.70;;;;;;5103766;28;20039;-68
2021/05/14 11:58:20;;;;;;;9.68;5.80;;;15.10;71.30;;;;;;5087267;28;20062;-68
2021/05/14 12:00:52;;;;;;;11.57;5.53;;;15.00;71.60;;;;;;5103455;28;20432;-68
2021/05/14 12:03:19;;;;;;;12.82;5.93;;;14.90;71.30;;;;;;5097573;28;20048;-68
2021/05/14 12:05:47;;;;;;;8.57;5.57;;;14.80;72.10;;;;;;5105454;28;20463;-68
2021/05/14 12:08:13;;;;;;;11.50;5.45;;;14.70;72.50;;;;;;5102029;28;20039;-67
2021/05/14 12:11:01;;;;;;;10.00;5.35;;;14.70;72.60;;;;;;5104009;28;20031;-67
2021/05/14 12:13:32;;;;;;;10.35;5.78;;;14.70;72.10;;;;;;5095995;28;20040;-66
2021/05/14 12:16:03;;;;;;;10.10;5.75;;;14.60;73.00;;;;;;5099839;28;20088;-68
2021/05/14 12:18:37;;;;;;;15.90;7.05;;;14.50;73.20;;;;;;5103394;28;20039;-68
2021/05/14 12:21:07;;;;;;;10.95;5.80;;;14.50;74.40;;;;;;5105856;28;20059;-68
2021/05/14 12:23:33;;;;;;;10.98;6.05;;;14.60;75.00;;;;;;5079456;28;20499;-68
2021/05/14 12:26:01;;;;;;;11.70;5.47;;;14.70;74.80;;;;;;5102944;28;20039;-67
2021/05/14 12:28:34;;;;;;;13.25;6.32;;;14.80;73.90;;;;;;5095501;28;20093;-67
2021/05/14 12:31:02;;;;;;;12.75;5.90;;;14.90;74.00;;;;;;5105022;28;20148;-67
2021/05/14 12:33:28;;;;;;;9.20;4.75;;;15.00;73.80;;;;;;5096226;28;20509;-67
2021/05/14 12:35:57;;;;;;;11.13;5.32;;;15.10;74.40;;;;;;5098956;28;20063;-67
2021/05/14 12:38:51;;;;;;;11.88;5.65;;;15.20;73.60;;;;;;5099117;28;20126;-67
2021/05/14 12:41:33;;;;;;;10.63;5.22;;;15.20;74.30;;;;;;5103413;28;20046;-68
2021/05/14 12:44:09;;;;;;;9.43;5.43;;;15.20;73.30;;;;;;5094761;28;20031;-67
2021/05/14 12:46:36;;;;;;;12.27;5.45;;;15.20;73.00;;;;;;5100837;28;20108;-68
2021/05/14 12:49:10;;;;;;;9.25;4.70;;;15.30;73.20;;;;;;5097001;28;20475;-68
2021/05/14 12:51:36;;;;;;;9.40;4.00;;;15.40;73.00;;;;;;5101717;28;20151;-68
2021/05/14 12:54:02;;;;;;;12.77;4.30;;;15.30;73.00;;;;;;5094324;28;20032;-67
2021/05/14 12:56:28;;;;;;;10.20;4.10;;;15.30;71.90;;;;;;5100051;28;20089;-67
2021/05/14 12:58:57;;;;;;;9.15;4.10;;;15.30;72.20;;;;;;5105668;28;20645;-67